Detall de PIREP

Printer-friendly versionPDF version

[2013/04/15 09:40:00]
Flight IATA:CT1021
Pilot Number:042
Company ICAO:CAT
Aircraft Type:B744/E
PAX:0
Departing Airport: KEWR
Destination Airport: LPAZ
Alternate Airport:LPPD
Online: VATSIM
Route:DCT DIXIE V276 MANTA OWENZ DOVEY 4160N 4155N 4150N 4145N 4140N 4135N DCT SOMUL DCT VSM DCT
Flight Level:F390
No Slew and time accel
No pause
Crash detect
Detect pilot in Cockpit between each 30 and 45 minutes
09:40 Zero fuel Weight: 394088 Lbs, Fuel Weight: 65119 Lbs
09:40 VATSIM:KEWR 150851Z 11004KT 10SM BKN250 08/M04 A3029 RMK AO2 SLP256 T00831044 53020 $
09:40 VATSIM:LPAZ 150900Z 23013KT 9999 FEW018 16/13 Q1021
09:40 VOICE CATALONIAN/BOEING TRANSPORT LEG 2
10:00 Parking Brakes off
10:10 Take-off
10:10 Take off Weight: 525156 Lbs
10:10 Wind: 032º @ 007 Knots Heading: 026º
10:10 POS N40º 41´ 16´´ W074º 10´ 16´´
10:10 Flaps:4 at 203 Knots
10:10 Gear Up: 207 Knots
10:10 Flaps:3 at 216 Knots
10:11 Flaps:2 at 204 Knots
10:11 Flaps:1 at 217 Knots
10:12 Flaps:0 at 222 Knots
10:25 Wind:359º@020 Knots Heading: 157º Ground Speed: 290 Knots Altitude 10026 ft
10:38 TOC
10:38 Fuel Weight: 115695 Lb
10:38 TOD
10:38 Fuel Weight: 115688 Lb
10:38 TOC
10:38 Fuel Weight: 115665 Lb
10:40 Wind:288º@047 Knots Heading: 068º Ground Speed: 507 Knots Altitude 39373 ft
10:55 Wind:291º@064 Knots Heading: 069º Ground Speed: 518 Knots Altitude 39373 ft
11:10 Wind:286º@055 Knots Heading: 087º Ground Speed: 518 Knots Altitude 39379 ft
11:25 Wind:267º@049 Knots Heading: 091º Ground Speed: 513 Knots Altitude 39389 ft
11:40 Wind:254º@054 Knots Heading: 094º Ground Speed: 515 Knots Altitude 39317 ft
11:55 Wind:249º@049 Knots Heading: 091º Ground Speed: 506 Knots Altitude 43313 ft
12:10 Wind:250º@048 Knots Heading: 093º Ground Speed: 507 Knots Altitude 43303 ft
12:25 Wind:254º@037 Knots Heading: 091º Ground Speed: 500 Knots Altitude 43231 ft
12:40 Wind:252º@030 Knots Heading: 089º Ground Speed: 490 Knots Altitude 43231 ft
12:55 Wind:252º@032 Knots Heading: 091º Ground Speed: 491 Knots Altitude 43215 ft
13:10 Wind:252º@028 Knots Heading: 089º Ground Speed: 495 Knots Altitude 43143 ft
13:25 Wind:252º@031 Knots Heading: 091º Ground Speed: 496 Knots Altitude 43074 ft
13:40 Wind:247º@035 Knots Heading: 090º Ground Speed: 509 Knots Altitude 43018 ft
13:55 Wind:247º@036 Knots Heading: 092º Ground Speed: 511 Knots Altitude 42982 ft
14:10 Wind:253º@038 Knots Heading: 116º Ground Speed: 510 Knots Altitude 42926 ft
14:25 Wind:227º@094 Knots Heading: 125º Ground Speed: 504 Knots Altitude 38891 ft
14:40 Wind:247º@098 Knots Heading: 126º Ground Speed: 533 Knots Altitude 39038 ft
14:47 TOD
14:47 Fuel Weight: 43680 Lb
14:55 Wind:248º@034 Knots Heading: 110º Ground Speed: 416 Knots Altitude 20085 ft
14:59 Flaps:1 at 201 Knots
15:03 Flaps:2 at 215 Knots
15:07 Flaps:3 at 170 Knots
15:08 Flaps:6 at 159 Knots
15:08 Gear Down: 149 Knots
15:10 Wind:262º@021 Knots Heading: 180º Ground Speed: 127 Knots Altitude 2782 ft
15:14 TouchDown:Rate -372 ft/min Speed: 122 Knots
15:14 VATSIM:LPAZ 151430Z 22010KT 9999 FEW020 SCT034 18/14 Q1020
15:14 Land
15:14 Wind:262º@028 Knots
15:14 Heading: 176º
15:14 Flight Duration: 05:04
15:14 Landing Weight: 431392 Lbs
15:14 POS N36º 58´ 28´´ W025º 10´ 17´´
15:17 Parking brakes on
15:17 Block to Block Duration: 05:17
15:17 Final Fuel: 36686 Lbls
15:17 Spent Fuel: 28432 Lbls
15:17 Flight Length: 2311 NM
15:17 TOD Land Length: 128 NM

Exportar CSV

Powered by Drupal - Modified by Danger4k